Nulato, Alaska
Current Conditions -  °F | °C
As of 12:53 AM on Friday 21 Nov 2014 (Local Time) from PAKV Reporting Station
Clear Clear  
Wind Chill: 16°   Ceiling: Unl
Heat Index: 29°   Visibility: 10mi
Dew Point: 18°   Wind: 18mph
Humidity: 64%   Direction: 40°NE
Pressure: 29.28"   Gusts: 29mph
Location:  64.72°N, 158.13°W
Report Text: PAKV 210953Z AUTO 04016G25KT 10SM CLR M02/M08 A2928 RMK AO1 PK WND 05026/0926 SLP920 T10171078 FZRANO TSNO
Loading
Personal Weather Stations






























Interactive Weather Map New forecast layout! Learn more

10-Day Weather Forecast

Advertisements
Track Severe Weather on mobile